createdAt,value
2023-09-30T00:01:29.328Z,4.97
2023-09-30T00:03:56.717Z,5.13
2023-09-30T00:06:24.400Z,5.27
2023-09-30T00:08:51.480Z,5.50
2023-09-30T00:11:18.621Z,5.27
2023-09-30T00:13:47.011Z,5.07
2023-09-30T00:16:14.115Z,5.00
2023-09-30T00:18:41.479Z,5.23
2023-09-30T00:21:08.951Z,5.33
2023-09-30T00:23:36.098Z,5.20
2023-09-30T00:26:03.413Z,5.10
2023-09-30T00:28:30.560Z,5.13
2023-09-30T00:30:57.650Z,4.63
2023-09-30T00:33:24.994Z,5.70
2023-09-30T00:35:51.920Z,4.97
2023-09-30T00:38:18.943Z,5.73
2023-09-30T00:40:50.200Z,5.87
2023-09-30T00:43:21.108Z,4.77
2023-09-30T00:45:57.564Z,5.30
2023-09-30T00:48:24.717Z,5.30
2023-09-30T00:50:51.761Z,5.53
2023-09-30T00:53:18.963Z,5.23
2023-09-30T00:55:46.044Z,6.43
2023-09-30T00:58:13.318Z,5.83
2023-09-30T01:00:41.565Z,6.17
2023-09-30T01:03:08.881Z,5.60
2023-09-30T01:05:36.048Z,5.30
2023-09-30T01:08:04.312Z,5.37
2023-09-30T01:10:31.472Z,6.07
2023-09-30T01:12:58.874Z,6.10
2023-09-30T01:15:25.872Z,6.17
2023-09-30T01:17:52.985Z,5.73
2023-09-30T01:20:23.469Z,6.10
2023-09-30T01:22:50.740Z,5.70
2023-09-30T01:25:17.791Z,6.23
2023-09-30T01:27:44.780Z,5.40
2023-09-30T01:30:12.268Z,5.53
2023-09-30T01:32:39.507Z,5.73
2023-09-30T01:35:07.146Z,6.40
2023-09-30T01:37:34.202Z,5.00
2023-09-30T01:40:01.105Z,5.70
2023-09-30T01:42:28.059Z,5.27
2023-09-30T01:44:55.700Z,5.13
2023-09-30T01:47:22.852Z,5.90
2023-09-30T01:49:50.002Z,5.53
2023-09-30T01:52:17.072Z,5.47
2023-09-30T01:54:44.110Z,5.40
2023-09-30T01:57:11.335Z,6.50
2023-09-30T01:59:38.436Z,5.90
2023-09-30T02:02:05.482Z,6.50
2023-09-30T02:04:32.537Z,5.60
2023-09-30T02:06:59.804Z,6.23
2023-09-30T02:09:27.126Z,5.60
2023-09-30T02:11:54.102Z,6.10
2023-09-30T02:14:21.770Z,5.60
2023-09-30T02:16:48.804Z,5.87
2023-09-30T02:19:15.835Z,6.30
2023-09-30T02:21:43.727Z,5.93
2023-09-30T02:24:11.396Z,5.43
2023-09-30T02:26:40.212Z,5.50
2023-09-30T02:29:08.899Z,6.43
2023-09-30T02:31:36.260Z,6.00
2023-09-30T02:34:04.065Z,6.20
2023-09-30T02:36:31.160Z,6.40
2023-09-30T02:38:59.153Z,6.77
2023-09-30T02:41:26.237Z,6.30
2023-09-30T02:43:53.187Z,6.33
2023-09-30T02:46:20.254Z,5.43
2023-09-30T02:48:47.345Z,6.27
2023-09-30T02:51:14.574Z,7.00
2023-09-30T02:53:41.569Z,5.97
2023-09-30T02:56:08.658Z,6.50
2023-09-30T02:58:35.696Z,6.30
2023-09-30T03:01:03.081Z,5.70
2023-09-30T03:03:32.279Z,5.70
2023-09-30T03:05:59.243Z,5.80
2023-09-30T03:08:26.527Z,5.93
2023-09-30T03:10:53.899Z,6.10
2023-09-30T03:13:22.846Z,6.03
2023-09-30T03:15:53.026Z,6.20
2023-09-30T03:18:25.167Z,6.33
2023-09-30T03:20:52.210Z,6.33
2023-09-30T03:23:19.228Z,5.77
2023-09-30T03:25:46.219Z,5.80
2023-09-30T03:28:13.796Z,6.13
2023-09-30T03:30:42.003Z,6.43
2023-09-30T03:33:09.200Z,6.47
2023-09-30T03:35:37.912Z,6.93
2023-09-30T03:38:06.327Z,6.43
2023-09-30T03:40:35.203Z,6.17
2023-09-30T03:43:02.727Z,5.90
2023-09-30T03:45:29.830Z,6.67
2023-09-30T03:47:57.060Z,6.33
2023-09-30T03:50:25.547Z,6.93
2023-09-30T03:52:52.508Z,6.97
2023-09-30T03:55:22.383Z,5.80
2023-09-30T03:57:52.842Z,6.07
2023-09-30T04:00:21.444Z,6.37
2023-09-30T04:02:51.907Z,5.80
2023-09-30T04:05:20.762Z,5.90
2023-09-30T04:07:48.314Z,7.33
2023-09-30T04:10:16.027Z,6.20
2023-09-30T04:12:43.163Z,6.27
2023-09-30T04:15:13.737Z,6.47
2023-09-30T04:17:41.215Z,6.67
2023-09-30T04:20:17.480Z,6.73
2023-09-30T04:22:50.407Z,6.63
2023-09-30T04:25:19.178Z,6.63
2023-09-30T04:27:50.157Z,6.57
2023-09-30T04:30:18.648Z,6.80
2023-09-30T04:32:46.046Z,7.00
2023-09-30T04:35:13.126Z,7.23
2023-09-30T04:37:40.354Z,7.40
2023-09-30T04:40:21.434Z,7.30
2023-09-30T04:42:49.374Z,6.80
2023-09-30T04:45:25.888Z,7.57
2023-09-30T04:47:54.173Z,6.83
2023-09-30T04:50:23.474Z,7.53
2023-09-30T04:52:52.731Z,7.50
2023-09-30T04:55:20.167Z,7.27
2023-09-30T04:57:49.588Z,8.10
2023-09-30T05:00:20.469Z,7.70
2023-09-30T05:02:48.107Z,8.60
2023-09-30T05:05:16.275Z,7.87
2023-09-30T05:07:43.651Z,7.80
2023-09-30T05:10:14.889Z,6.90
2023-09-30T05:12:47.258Z,7.80
2023-09-30T05:15:20.826Z,7.77
2023-09-30T05:17:49.412Z,8.30
2023-09-30T05:20:21.144Z,7.87
2023-09-30T05:22:50.077Z,8.23
2023-09-30T05:25:18.463Z,7.93
2023-09-30T05:27:49.380Z,7.87
2023-09-30T05:30:17.336Z,8.13
2023-09-30T05:32:44.496Z,8.83
2023-09-30T05:35:14.836Z,8.00
2023-09-30T05:37:48.538Z,8.37
2023-09-30T05:40:24.130Z,8.43
2023-09-30T05:42:55.116Z,8.13
2023-09-30T05:45:24.790Z,8.87
2023-09-30T05:47:53.838Z,8.37
2023-09-30T05:50:26.279Z,8.63
2023-09-30T05:52:54.893Z,7.37
2023-09-30T05:55:23.149Z,7.87
2023-09-30T05:57:53.859Z,7.60
2023-09-30T06:00:32.016Z,7.73
2023-09-30T06:03:00.427Z,7.27
2023-09-30T06:05:30.735Z,8.20
2023-09-30T06:07:58.494Z,8.27
2023-09-30T06:10:27.318Z,7.33
2023-09-30T06:12:58.430Z,9.53
2023-09-30T06:15:30.034Z,8.33
2023-09-30T06:17:58.222Z,8.80
2023-09-30T06:20:28.424Z,8.83
2023-09-30T06:22:56.088Z,7.83
2023-09-30T06:25:25.234Z,8.27
2023-09-30T06:27:52.529Z,7.97
2023-09-30T06:30:23.267Z,8.33
2023-09-30T06:32:50.875Z,8.47
2023-09-30T06:35:19.725Z,7.37
2023-09-30T06:37:48.714Z,8.70
2023-09-30T06:40:15.915Z,8.27
2023-09-30T06:45:11.368Z,7.90
2023-09-30T06:47:42.560Z,8.03
2023-09-30T06:50:17.440Z,7.87
2023-09-30T06:52:51.089Z,6.40
2023-09-30T06:55:18.594Z,7.30
2023-09-30T06:57:46.043Z,7.50
2023-09-30T07:00:15.163Z,7.75
2023-09-30T07:02:43.130Z,6.87
2023-09-30T07:05:16.065Z,7.30
2023-09-30T07:07:46.824Z,7.07
2023-09-30T07:10:14.419Z,6.87
2023-09-30T07:12:41.527Z,6.90
2023-09-30T07:15:09.900Z,8.30
2023-09-30T07:17:38.225Z,6.93
2023-09-30T07:20:07.031Z,6.20
2023-09-30T07:22:46.094Z,7.27
2023-09-30T07:25:20.193Z,7.00
2023-09-30T07:27:47.757Z,8.10
2023-09-30T07:30:18.814Z,7.50
2023-09-30T07:32:46.906Z,7.60
2023-09-30T07:35:16.620Z,6.97
2023-09-30T07:37:44.590Z,7.50
2023-09-30T07:40:12.841Z,7.40
2023-09-30T07:42:40.163Z,7.30
2023-09-30T07:45:07.787Z,7.57
2023-09-30T07:47:35.505Z,6.70
2023-09-30T07:50:07.652Z,7.40
2023-09-30T07:52:34.657Z,8.07
2023-09-30T07:55:01.703Z,7.43
2023-09-30T07:57:29.088Z,7.60
2023-09-30T07:59:56.796Z,7.10
2023-09-30T08:02:25.650Z,7.07
2023-09-30T08:04:53.519Z,6.70
2023-09-30T08:07:20.591Z,6.97
2023-09-30T08:09:49.120Z,7.03
2023-09-30T08:12:16.254Z,7.33
2023-09-30T08:14:45.737Z,6.60
2023-09-30T08:17:12.815Z,6.77
2023-09-30T08:19:39.806Z,6.90
2023-09-30T08:22:08.023Z,6.80
2023-09-30T08:24:34.985Z,6.37
2023-09-30T08:27:02.026Z,6.93
2023-09-30T08:29:29.092Z,7.67
2023-09-30T08:31:56.033Z,7.33
2023-09-30T08:34:25.272Z,7.30
2023-09-30T08:36:52.448Z,7.20
2023-09-30T08:39:19.658Z,7.87
2023-09-30T08:41:47.254Z,7.30
2023-09-30T08:44:15.168Z,7.33
2023-09-30T08:46:43.075Z,7.03
2023-09-30T08:49:12.732Z,6.90
2023-09-30T08:51:40.072Z,7.10
2023-09-30T08:54:07.342Z,6.10
2023-09-30T08:56:34.680Z,7.50
2023-09-30T08:59:03.741Z,6.83
2023-09-30T09:01:32.305Z,6.83
2023-09-30T09:03:59.766Z,7.63
2023-09-30T09:06:28.074Z,6.63
2023-09-30T09:08:55.326Z,7.10
2023-09-30T09:11:24.913Z,8.10
2023-09-30T09:13:57.286Z,7.37
2023-09-30T09:16:25.802Z,6.77
2023-09-30T09:18:54.719Z,8.27
2023-09-30T09:21:28.823Z,7.40
2023-09-30T09:23:55.995Z,7.30
2023-09-30T09:26:27.806Z,7.17
2023-09-30T09:29:12.830Z,6.83
2023-09-30T09:31:39.940Z,7.60
2023-09-30T09:34:15.575Z,7.03
2023-09-30T09:36:47.122Z,7.33
2023-09-30T09:39:14.829Z,7.47
2023-09-30T09:41:57.363Z,6.70
2023-09-30T09:44:28.773Z,6.90
2023-09-30T09:46:56.423Z,6.40
2023-09-30T09:49:23.599Z,7.13
2023-09-30T09:51:51.635Z,6.27
2023-09-30T09:54:18.766Z,6.77
2023-09-30T09:56:46.473Z,6.47
2023-09-30T09:59:15.190Z,6.37
2023-09-30T10:01:43.682Z,6.10
2023-09-30T10:04:16.577Z,6.53
2023-09-30T10:06:49.574Z,6.00
2023-09-30T10:09:19.177Z,5.63
2023-09-30T10:11:46.789Z,6.30
2023-09-30T10:14:35.059Z,6.53
2023-09-30T10:17:02.836Z,6.47
2023-09-30T10:19:31.720Z,6.30
2023-09-30T10:22:18.295Z,5.67
2023-09-30T10:24:45.489Z,5.70
2023-09-30T10:27:33.803Z,5.73
2023-09-30T10:30:09.976Z,6.27
2023-09-30T10:32:52.196Z,5.63
2023-09-30T10:35:20.500Z,6.13
2023-09-30T10:37:48.463Z,5.53
2023-09-30T10:40:29.289Z,5.40
2023-09-30T10:42:58.547Z,5.37
2023-09-30T10:45:46.261Z,4.63
2023-09-30T10:48:41.600Z,4.40
2023-09-30T10:51:22.370Z,3.97
2023-09-30T10:53:54.191Z,4.80
2023-09-30T10:56:21.960Z,4.20
2023-09-30T10:58:49.906Z,4.10
2023-09-30T11:01:22.050Z,4.00
2023-09-30T11:03:53.246Z,4.40
2023-09-30T11:06:23.038Z,3.87
2023-09-30T11:08:57.659Z,4.17
2023-09-30T11:11:36.640Z,4.13
2023-09-30T11:14:07.211Z,4.30
2023-09-30T11:16:47.161Z,4.43
2023-09-30T11:19:14.379Z,4.40
2023-09-30T11:21:41.972Z,3.90
2023-09-30T11:24:09.799Z,3.50
2023-09-30T11:26:39.431Z,4.28
2023-09-30T11:29:13.428Z,4.37
2023-09-30T11:31:42.245Z,3.70
2023-09-30T11:34:09.830Z,3.57
2023-09-30T11:36:43.595Z,3.47
2023-09-30T11:39:11.005Z,3.90
2023-09-30T11:41:44.932Z,3.10
2023-09-30T11:44:17.470Z,3.70
2023-09-30T11:46:51.134Z,3.50
2023-09-30T11:49:32.444Z,3.37
2023-09-30T11:52:01.727Z,3.53
2023-09-30T11:54:33.890Z,3.60
2023-09-30T11:57:02.930Z,3.17
2023-09-30T11:59:30.401Z,3.60
2023-09-30T12:02:12.690Z,3.30
2023-09-30T12:04:41.238Z,3.70
2023-09-30T12:07:09.547Z,3.17
2023-09-30T12:09:38.812Z,3.13
2023-09-30T12:12:06.648Z,3.53
2023-09-30T12:14:34.121Z,3.10
2023-09-30T12:17:01.158Z,3.33
2023-09-30T12:19:28.301Z,3.53
2023-09-30T12:21:55.445Z,3.10
2023-09-30T12:24:23.281Z,2.77
2023-09-30T12:26:51.426Z,2.90
2023-09-30T12:29:23.550Z,3.10
2023-09-30T12:31:54.150Z,2.83
2023-09-30T12:34:25.036Z,3.00
2023-09-30T12:36:52.903Z,2.77
2023-09-30T12:39:26.265Z,2.93
2023-09-30T12:41:56.633Z,3.55
2023-09-30T12:44:24.405Z,2.83
2023-09-30T12:46:52.158Z,3.10
2023-09-30T12:49:20.064Z,3.40
2023-09-30T12:51:47.410Z,3.30
2023-09-30T12:54:16.176Z,4.00
2023-09-30T12:56:43.703Z,3.27
2023-09-30T12:59:10.823Z,3.30
2023-09-30T13:01:37.939Z,3.23
2023-09-30T13:04:09.554Z,2.90
2023-09-30T13:06:37.722Z,2.93
2023-09-30T13:09:06.159Z,3.00
2023-09-30T13:11:35.741Z,3.28
2023-09-30T13:14:04.454Z,3.13
2023-09-30T13:16:31.670Z,3.17
2023-09-30T13:21:25.778Z,3.17
2023-09-30T13:23:53.822Z,3.03
2023-09-30T13:26:20.896Z,2.93
2023-09-30T13:28:47.983Z,2.93
2023-09-30T13:31:15.045Z,2.90
2023-09-30T13:33:42.083Z,2.87
2023-09-30T13:36:09.117Z,2.70
2023-09-30T13:38:36.317Z,2.50
2023-09-30T13:41:03.286Z,2.47
2023-09-30T13:43:30.331Z,3.60
2023-09-30T13:45:57.438Z,3.03
2023-09-30T13:48:24.729Z,2.67
2023-09-30T13:50:51.985Z,2.73
2023-09-30T13:53:19.081Z,3.30
2023-09-30T13:55:46.775Z,3.03
2023-09-30T13:58:13.928Z,2.90
2023-09-30T14:00:41.068Z,3.20
2023-09-30T14:03:09.396Z,3.20
2023-09-30T14:05:36.568Z,3.33
2023-09-30T14:08:04.827Z,3.20
2023-09-30T14:10:31.918Z,2.93
2023-09-30T14:12:59.056Z,3.10
2023-09-30T14:15:29.435Z,3.20
2023-09-30T14:17:56.741Z,2.87
2023-09-30T14:20:24.331Z,3.07
2023-09-30T14:22:52.843Z,2.73
2023-09-30T14:25:20.246Z,3.20
2023-09-30T14:27:48.058Z,2.80
2023-09-30T14:30:15.795Z,3.10
2023-09-30T14:32:43.656Z,3.13
2023-09-30T14:35:10.859Z,2.93
2023-09-30T14:37:38.081Z,3.17
2023-09-30T14:40:11.886Z,2.97
2023-09-30T14:42:39.442Z,3.00
2023-09-30T14:45:07.310Z,3.03
2023-09-30T14:47:34.771Z,3.00
2023-09-30T14:50:03.241Z,3.03
2023-09-30T14:52:30.337Z,2.77
2023-09-30T14:54:57.455Z,3.07
2023-09-30T14:57:26.035Z,3.60
2023-09-30T14:59:53.164Z,3.10
2023-09-30T15:02:20.177Z,3.17
2023-09-30T15:04:47.148Z,3.10
2023-09-30T15:07:14.291Z,3.23
2023-09-30T15:09:43.671Z,3.53
2023-09-30T15:12:10.952Z,2.73
2023-09-30T15:14:37.995Z,3.23
2023-09-30T15:17:05.079Z,3.00
2023-09-30T15:19:32.212Z,2.90
2023-09-30T15:21:59.651Z,2.93
2023-09-30T15:24:26.699Z,3.03
2023-09-30T15:26:53.673Z,2.90
2023-09-30T15:29:20.671Z,3.70
2023-09-30T15:31:47.823Z,3.50
2023-09-30T15:34:15.125Z,3.20
2023-09-30T15:36:42.372Z,3.27
2023-09-30T15:39:09.468Z,2.50
2023-09-30T15:41:36.597Z,3.00
2023-09-30T15:44:04.193Z,3.03
2023-09-30T15:46:31.289Z,3.20
2023-09-30T15:48:58.424Z,3.17
2023-09-30T15:51:25.507Z,3.10
2023-09-30T15:53:52.621Z,3.10
2023-09-30T15:56:19.584Z,3.17
2023-09-30T15:58:46.866Z,2.90
2023-09-30T16:01:14.463Z,3.27
2023-09-30T16:03:44.283Z,3.10
2023-09-30T16:06:11.696Z,3.40
2023-09-30T16:08:38.895Z,3.60
2023-09-30T16:11:06.009Z,3.17
2023-09-30T16:13:33.308Z,3.20
2023-09-30T16:16:00.320Z,3.70
2023-09-30T16:18:28.352Z,3.43
2023-09-30T16:20:55.640Z,3.90
2023-09-30T16:23:23.251Z,3.03
2023-09-30T16:25:50.328Z,3.30
2023-09-30T16:28:17.487Z,4.03
2023-09-30T16:30:45.534Z,3.83
2023-09-30T16:33:12.887Z,4.10
2023-09-30T16:35:40.060Z,4.10
2023-09-30T16:38:06.981Z,4.30
2023-09-30T16:40:34.008Z,4.00
2023-09-30T16:43:01.120Z,3.20
2023-09-30T16:45:28.237Z,3.73
2023-09-30T16:47:55.625Z,3.60
2023-09-30T16:50:23.457Z,4.10
2023-09-30T16:52:50.548Z,3.70
2023-09-30T16:55:17.702Z,4.73
2023-09-30T16:57:44.882Z,6.17
2023-09-30T17:00:12.413Z,6.30
2023-09-30T17:02:39.761Z,5.10
2023-09-30T17:05:07.885Z,5.17
2023-09-30T17:07:35.786Z,4.33
2023-09-30T17:10:03.046Z,4.60
2023-09-30T17:12:30.114Z,3.70
2023-09-30T17:14:57.114Z,3.70
2023-09-30T17:17:24.273Z,4.23
2023-09-30T17:19:51.340Z,4.33
2023-09-30T17:22:19.043Z,5.90
2023-09-30T17:24:46.823Z,8.57
2023-09-30T17:27:13.764Z,4.70
2023-09-30T17:29:40.837Z,4.50
2023-09-30T17:32:08.850Z,4.90
2023-09-30T17:34:39.064Z,4.13
2023-09-30T17:37:07.239Z,4.63
2023-09-30T17:39:34.848Z,4.90
2023-09-30T17:42:01.976Z,5.00
2023-09-30T17:44:29.145Z,5.70
2023-09-30T17:46:56.303Z,5.63
2023-09-30T17:49:23.480Z,5.33
2023-09-30T17:51:50.484Z,4.80
2023-09-30T17:54:17.591Z,5.37
2023-09-30T17:56:44.785Z,5.23
2023-09-30T17:59:13.379Z,4.97
2023-09-30T18:01:40.755Z,4.63
2023-09-30T18:04:08.497Z,5.13
2023-09-30T18:06:35.692Z,5.43
2023-09-30T18:09:03.030Z,5.30
2023-09-30T18:11:30.281Z,4.93
2023-09-30T18:13:58.474Z,5.63
2023-09-30T18:16:26.270Z,5.87
2023-09-30T18:18:53.509Z,5.63
2023-09-30T18:21:20.821Z,5.63
2023-09-30T18:23:48.023Z,5.53
2023-09-30T18:26:14.961Z,5.37
2023-09-30T18:28:42.297Z,7.07
2023-09-30T18:31:09.395Z,6.80
2023-09-30T18:33:36.431Z,7.00
2023-09-30T18:36:04.105Z,6.80
2023-09-30T18:38:32.267Z,6.50
2023-09-30T18:40:59.651Z,6.47
2023-09-30T18:43:27.784Z,6.90
2023-09-30T18:45:55.082Z,6.73
2023-09-30T18:48:22.104Z,6.73
2023-09-30T18:50:52.179Z,6.20
2023-09-30T18:53:19.635Z,7.70
2023-09-30T18:55:48.415Z,8.10
2023-09-30T18:58:16.346Z,7.40
2023-09-30T19:00:46.312Z,7.77
2023-09-30T19:03:14.230Z,6.40
2023-09-30T19:05:41.902Z,6.17
2023-09-30T19:08:09.882Z,6.90
2023-09-30T19:10:38.378Z,7.50
2023-09-30T19:13:05.928Z,7.47
2023-09-30T19:15:33.143Z,7.33
2023-09-30T19:18:00.956Z,6.37
2023-09-30T19:20:28.162Z,6.63
2023-09-30T19:22:55.706Z,6.93
2023-09-30T19:25:24.015Z,8.50
2023-09-30T19:27:54.194Z,7.53
2023-09-30T19:30:22.097Z,7.43
2023-09-30T19:32:49.663Z,8.53
2023-09-30T19:35:16.859Z,8.20
2023-09-30T19:37:43.944Z,6.93
2023-09-30T19:40:13.123Z,7.50
2023-09-30T19:42:41.039Z,7.47
2023-09-30T19:45:08.599Z,8.13
2023-09-30T19:47:35.798Z,7.43
2023-09-30T19:50:05.817Z,7.70
2023-09-30T19:52:33.033Z,7.50
2023-09-30T19:55:00.120Z,8.33
2023-09-30T19:57:28.697Z,9.07
2023-09-30T19:59:55.887Z,8.70
2023-09-30T20:02:26.456Z,8.67
2023-09-30T20:04:53.522Z,10.50
2023-09-30T20:07:20.689Z,10.97
2023-09-30T20:09:51.433Z,10.53
2023-09-30T20:12:19.087Z,10.70
2023-09-30T20:14:46.822Z,10.80
2023-09-30T20:17:14.107Z,11.13
2023-09-30T20:19:41.215Z,10.10
2023-09-30T20:22:08.391Z,10.43
2023-09-30T20:24:36.132Z,10.33
2023-09-30T20:27:04.618Z,10.70
2023-09-30T20:29:31.721Z,10.00
2023-09-30T20:31:58.794Z,10.00
2023-09-30T20:34:25.903Z,10.20
2023-09-30T20:36:53.520Z,11.73
2023-09-30T20:39:22.128Z,11.13
2023-09-30T20:41:51.821Z,10.03
2023-09-30T20:44:19.522Z,10.00
2023-09-30T20:46:49.133Z,10.00
2023-09-30T20:49:19.310Z,9.87
2023-09-30T20:51:47.132Z,10.97
2023-09-30T20:54:14.629Z,11.03
2023-09-30T20:56:41.760Z,12.53
2023-09-30T20:59:09.508Z,11.93
2023-09-30T21:01:36.771Z,10.93
2023-09-30T21:04:04.114Z,9.57
2023-09-30T21:06:31.478Z,9.87
2023-09-30T21:08:58.666Z,10.90
2023-09-30T21:11:25.745Z,10.87
2023-09-30T21:13:52.903Z,10.60
2023-09-30T21:16:20.185Z,10.00
2023-09-30T21:18:47.379Z,11.13
2023-09-30T21:21:14.453Z,10.47
2023-09-30T21:23:41.716Z,10.30
2023-09-30T21:26:15.113Z,11.00
2023-09-30T21:28:45.237Z,11.83
2023-09-30T21:31:23.773Z,11.57
2023-09-30T21:33:51.353Z,10.77
2023-09-30T21:36:21.953Z,11.13
2023-09-30T21:38:50.121Z,11.10
2023-09-30T21:41:20.661Z,11.70
2023-09-30T21:43:48.169Z,11.67
2023-09-30T21:46:15.670Z,11.70
2023-09-30T21:48:42.924Z,12.90
2023-09-30T21:51:10.020Z,14.17
2023-09-30T21:53:37.586Z,13.03
2023-09-30T21:56:05.652Z,13.57
2023-09-30T21:58:33.258Z,13.53
2023-09-30T22:01:00.741Z,12.23
2023-09-30T22:03:29.625Z,12.13
2023-09-30T22:05:57.368Z,11.33
2023-09-30T22:08:26.397Z,12.40
2023-09-30T22:10:55.468Z,11.97
2023-09-30T22:13:26.525Z,12.63
2023-09-30T22:15:54.499Z,11.73
2023-09-30T22:18:22.588Z,11.73
2023-09-30T22:20:49.875Z,11.53
2023-09-30T22:23:16.859Z,11.33
2023-09-30T22:25:44.042Z,11.67
2023-09-30T22:28:11.756Z,13.37
2023-09-30T22:30:39.096Z,13.80
2023-09-30T22:33:07.489Z,12.77
2023-09-30T22:35:34.949Z,11.97
2023-09-30T22:38:02.525Z,12.33
2023-09-30T22:40:29.572Z,11.90
2023-09-30T22:42:57.555Z,11.87
2023-09-30T22:45:24.797Z,12.37
2023-09-30T22:47:54.278Z,12.63
2023-09-30T22:50:23.531Z,13.07
2023-09-30T22:52:51.617Z,13.47
2023-09-30T22:55:23.467Z,13.53
2023-09-30T22:57:51.777Z,13.17
2023-09-30T23:00:20.771Z,13.03
2023-09-30T23:02:48.926Z,13.27
2023-09-30T23:05:18.998Z,12.80
2023-09-30T23:07:46.751Z,12.87
2023-09-30T23:10:16.057Z,13.10
2023-09-30T23:12:43.640Z,13.50
2023-09-30T23:15:19.437Z,13.90
2023-09-30T23:17:48.591Z,13.43
2023-09-30T23:20:24.374Z,14.10
2023-09-30T23:22:53.786Z,13.67
2023-09-30T23:25:29.208Z,13.47
2023-09-30T23:27:58.398Z,13.70
2023-09-30T23:30:27.131Z,13.80
2023-09-30T23:32:58.681Z,14.07
2023-09-30T23:35:28.081Z,14.63
2023-09-30T23:38:03.241Z,14.40
2023-09-30T23:40:34.674Z,14.77
2023-09-30T23:43:03.039Z,14.47
2023-09-30T23:45:32.761Z,14.17
2023-09-30T23:48:00.184Z,13.67
2023-09-30T23:50:30.867Z,13.87
2023-09-30T23:53:01.090Z,14.60
2023-09-30T23:55:29.372Z,13.93
2023-09-30T23:57:56.988Z,14.07
